Time;durP1;ratioP1;P1;durP2;ratioP2;P2;SDS_P1;SDS_P2;PMS_P1;PMS_P2;Temp;Humidity;BMP_temperature;BMP_pressure;BME280_temperature;BME280_humidity;BME280_pressure;Samples;Min_cycle;Max_cycle;Signal;HPM_P1;HPM_P2
2022/03/13 00:02:18;;;;;;;;;12.67;12.00;;;;;;;;5043344;28;45320;-79
2022/03/13 00:04:44;;;;;;;;;14.67;13.33;;;;;;;;5057235;28;45384;-78
2022/03/13 00:07:17;;;;;;;;;9.33;9.33;;;;;;;;5055020;28;46318;-78
2022/03/13 00:09:44;;;;;;;;;12.00;11.00;;;;;;;;5060144;28;45405;-77
2022/03/13 00:12:14;;;;;;;;;13.33;10.33;;;;;;;;5062094;28;45289;-79
2022/03/13 00:14:42;;;;;;;;;11.00;11.00;;;;;;;;5063062;28;45153;-78
2022/03/13 00:17:08;;;;;;;;;11.00;10.67;;;;;;;;5099941;27;45377;-78
2022/03/13 00:19:34;;;;;;;;;12.00;10.00;;;;;;;;5098050;27;48018;-79
2022/03/13 00:21:59;;;;;;;;;14.33;13.00;;;;;;;;5099540;28;45380;-78
2022/03/13 00:24:24;;;;;;;;;11.00;10.00;;;;;;;;5099762;27;45281;-77
2022/03/13 00:26:52;;;;;;;;;12.67;12.00;;;;;;;;5099409;28;45445;-78
2022/03/13 00:29:17;;;;;;;;;9.33;9.00;;;;;;;;5098013;28;47712;-76
2022/03/13 00:31:42;;;;;;;;;10.00;10.00;;;;;;;;5100438;27;45285;-79
2022/03/13 00:34:08;;;;;;;;;9.00;9.00;;;;;;;;5102543;27;45215;-76
2022/03/13 00:36:34;;;;;;;;;10.00;10.00;;;;;;;;5100120;28;45236;-79
2022/03/13 00:38:59;;;;;;;;;8.33;8.33;;;;;;;;5099853;27;46934;-78
2022/03/13 00:41:24;;;;;;;;;11.33;11.00;;;;;;;;5102347;28;45204;-78
2022/03/13 00:43:49;;;;;;;;;8.67;8.67;;;;;;;;5104616;27;45282;-77
2022/03/13 00:46:15;;;;;;;;;12.00;12.00;;;;;;;;5103433;28;46973;-78
2022/03/13 00:48:41;;;;;;;;;14.00;13.00;;;;;;;;5103685;27;45232;-78
2022/03/13 00:51:06;;;;;;;;;11.67;9.67;;;;;;;;5102747;27;45436;-79
2022/03/13 00:53:31;;;;;;;;;8.00;7.33;;;;;;;;5105862;27;45852;-77
2022/03/13 00:55:57;;;;;;;;;9.00;9.00;;;;;;;;5102525;27;46149;-78
2022/03/13 00:58:22;;;;;;;;;10.00;9.00;;;;;;;;5105031;28;45397;-77
2022/03/13 01:00:47;;;;;;;;;10.00;9.67;;;;;;;;5101670;28;45230;-78
2022/03/13 01:03:31;;;;;;;;;10.33;10.33;;;;;;;;5102385;27;45369;-78
2022/03/13 01:05:56;;;;;;;;;10.00;10.00;;;;;;;;5095893;28;45760;-78
2022/03/13 01:08:22;;;;;;;;;15.00;11.33;;;;;;;;5099758;27;45381;-78
2022/03/13 01:10:48;;;;;;;;;8.00;8.00;;;;;;;;5101331;28;45324;-78
2022/03/13 01:13:13;;;;;;;;;10.00;10.00;;;;;;;;5102133;28;45516;-78
2022/03/13 01:15:40;;;;;;;;;10.33;10.33;;;;;;;;5082734;28;46151;-78
2022/03/13 01:18:06;;;;;;;;;12.00;12.00;;;;;;;;5060890;28;45327;-79
2022/03/13 01:20:31;;;;;;;;;11.33;10.33;;;;;;;;5064534;28;45402;-78
2022/03/13 01:22:56;;;;;;;;;11.00;11.00;;;;;;;;5063268;28;45288;-78
2022/03/13 01:25:21;;;;;;;;;12.00;11.00;;;;;;;;5061583;28;46934;-79
2022/03/13 01:27:47;;;;;;;;;13.00;12.00;;;;;;;;5062779;28;47353;-79
2022/03/13 01:30:14;;;;;;;;;11.33;11.33;;;;;;;;5061786;28;45215;-77
2022/03/13 01:32:41;;;;;;;;;13.67;12.33;;;;;;;;5062880;28;45245;-78
2022/03/13 01:35:06;;;;;;;;;16.67;15.67;;;;;;;;5062184;28;45603;-79
2022/03/13 01:37:40;;;;;;;;;15.00;14.33;;;;;;;;5063657;28;46310;-79
2022/03/13 01:40:10;;;;;;;;;14.00;13.33;;;;;;;;5060945;28;46029;-79
2022/03/13 01:42:36;;;;;;;;;13.00;12.00;;;;;;;;5059381;28;45398;-78
2022/03/13 01:45:02;;;;;;;;;14.00;11.00;;;;;;;;5057898;28;45494;-79
2022/03/13 01:47:28;;;;;;;;;10.00;9.67;;;;;;;;5058133;28;48422;-79
2022/03/13 01:49:53;;;;;;;;;18.33;16.67;;;;;;;;5060995;28;45921;-78
2022/03/13 01:52:26;;;;;;;;;13.33;13.33;;;;;;;;5063876;28;45239;-79
2022/03/13 01:54:52;;;;;;;;;11.00;11.00;;;;;;;;5061314;28;45614;-78
2022/03/13 01:57:18;;;;;;;;;16.67;15.33;;;;;;;;5058643;28;45614;-79
2022/03/13 01:59:43;;;;;;;;;17.00;15.67;;;;;;;;5062016;28;45419;-78
2022/03/13 02:02:08;;;;;;;;;18.33;18.00;;;;;;;;5058945;28;45247;-77
2022/03/13 02:04:34;;;;;;;;;16.00;15.00;;;;;;;;5060336;28;45429;-78
2022/03/13 02:06:59;;;;;;;;;14.00;14.00;;;;;;;;5062229;28;45300;-78
2022/03/13 02:09:25;;;;;;;;;15.67;15.00;;;;;;;;5061100;28;45321;-78
2022/03/13 02:11:51;;;;;;;;;12.67;12.67;;;;;;;;5059506;28;45456;-78
2022/03/13 02:14:17;;;;;;;;;13.33;13.00;;;;;;;;5057961;28;45368;-78
2022/03/13 02:16:43;;;;;;;;;15.00;14.00;;;;;;;;5058831;28;45380;-79
2022/03/13 02:19:08;;;;;;;;;13.67;13.67;;;;;;;;5058821;28;45331;-78
2022/03/13 02:21:37;;;;;;;;;15.33;14.00;;;;;;;;5059762;28;45358;-79
2022/03/13 02:24:06;;;;;;;;;13.67;13.67;;;;;;;;5059598;28;45310;-78
2022/03/13 02:26:33;;;;;;;;;10.00;10.00;;;;;;;;5060769;28;48382;-79
2022/03/13 02:28:58;;;;;;;;;12.00;11.00;;;;;;;;5060235;28;45444;-78
2022/03/13 02:31:27;;;;;;;;;15.67;12.33;;;;;;;;5059836;28;45343;-79
2022/03/13 02:33:53;;;;;;;;;12.33;12.33;;;;;;;;5062439;28;46244;-78
2022/03/13 02:36:22;;;;;;;;;10.67;10.67;;;;;;;;5060632;28;47416;-79
2022/03/13 02:38:47;;;;;;;;;13.00;12.67;;;;;;;;5060252;28;45406;-78
2022/03/13 02:41:13;;;;;;;;;13.00;13.00;;;;;;;;5063117;28;45160;-79
2022/03/13 02:43:38;;;;;;;;;12.00;10.67;;;;;;;;5063322;28;45291;-79
2022/03/13 02:46:14;;;;;;;;;9.67;9.67;;;;;;;;5062284;28;45410;-78
2022/03/13 02:48:39;;;;;;;;;10.33;10.00;;;;;;;;5056091;28;45270;-79
2022/03/13 02:51:04;;;;;;;;;15.00;14.00;;;;;;;;5060358;28;45363;-79
2022/03/13 02:53:29;;;;;;;;;10.67;10.00;;;;;;;;5057569;28;44904;-78
2022/03/13 02:55:55;;;;;;;;;11.00;11.00;;;;;;;;5057442;28;45525;-79
2022/03/13 02:58:20;;;;;;;;;13.67;11.67;;;;;;;;5058684;28;45302;-79
2022/03/13 03:00:49;;;;;;;;;12.00;12.00;;;;;;;;5054947;28;45354;-79
2022/03/13 03:03:16;;;;;;;;;13.00;12.33;;;;;;;;5056775;28;45473;-78
2022/03/13 03:05:41;;;;;;;;;14.33;14.33;;;;;;;;5053547;28;47459;-79
2022/03/13 03:08:07;;;;;;;;;16.33;15.33;;;;;;;;5055005;28;45398;-79
2022/03/13 03:10:33;;;;;;;;;13.00;12.67;;;;;;;;5052375;28;45373;-79
2022/03/13 03:12:59;;;;;;;;;12.00;11.00;;;;;;;;5054030;28;45325;-78
2022/03/13 03:15:25;;;;;;;;;16.67;14.00;;;;;;;;5066206;28;47911;-78
2022/03/13 03:17:50;;;;;;;;;12.00;11.67;;;;;;;;5098058;28;45408;-78
2022/03/13 03:20:15;;;;;;;;;13.33;13.00;;;;;;;;5096205;28;45406;-78
2022/03/13 03:22:40;;;;;;;;;17.33;15.67;;;;;;;;5096793;28;47364;-79
2022/03/13 03:25:06;;;;;;;;;12.00;12.00;;;;;;;;5096087;28;45159;-78
2022/03/13 03:27:31;;;;;;;;;16.00;15.33;;;;;;;;5096525;27;45375;-78
2022/03/13 03:30:00;;;;;;;;;17.00;16.33;;;;;;;;5097453;28;45289;-79
2022/03/13 03:32:25;;;;;;;;;20.00;20.00;;;;;;;;5093420;28;45258;-79
2022/03/13 03:34:50;;;;;;;;;17.00;14.67;;;;;;;;5096771;28;45368;-78
2022/03/13 03:37:16;;;;;;;;;20.33;18.67;;;;;;;;5096394;28;45344;-78
2022/03/13 03:39:41;;;;;;;;;17.33;17.00;;;;;;;;5097525;28;45296;-79
2022/03/13 03:42:06;;;;;;;;;19.00;16.00;;;;;;;;5097162;28;45593;-79
2022/03/13 03:44:32;;;;;;;;;20.25;19.25;;;;;;;;5097462;27;45423;-78
2022/03/13 03:46:57;;;;;;;;;19.67;16.33;;;;;;;;5095080;28;45408;-78
2022/03/13 03:49:23;;;;;;;;;16.67;15.00;;;;;;;;5098286;28;45297;-78
2022/03/13 03:51:48;;;;;;;;;16.33;15.00;;;;;;;;5096004;27;45448;-79
2022/03/13 03:54:14;;;;;;;;;16.67;14.00;;;;;;;;5095818;28;45726;-79
2022/03/13 03:56:40;;;;;;;;;12.67;12.33;;;;;;;;5092188;28;45364;-79
2022/03/13 03:59:05;;;;;;;;;18.67;17.67;;;;;;;;5093905;27;45312;-78
2022/03/13 04:01:36;;;;;;;;;13.67;12.67;;;;;;;;5092926;28;45328;-79
2022/03/13 04:04:02;;;;;;;;;16.67;14.00;;;;;;;;5093486;27;45328;-79
2022/03/13 04:06:27;;;;;;;;;13.67;10.33;;;;;;;;5098362;28;45387;-79
2022/03/13 04:08:52;;;;;;;;;9.67;8.67;;;;;;;;5097011;28;44751;-77
2022/03/13 04:11:17;;;;;;;;;10.33;10.33;;;;;;;;5097877;27;45239;-79
2022/03/13 04:13:44;;;;;;;;;11.33;10.33;;;;;;;;5098464;28;47032;-79
2022/03/13 04:16:09;;;;;;;;;11.00;11.00;;;;;;;;5070332;28;45337;-78
2022/03/13 04:18:35;;;;;;;;;9.00;9.00;;;;;;;;5057744;28;45314;-79
2022/03/13 04:21:00;;;;;;;;;8.00;7.33;;;;;;;;5054428;28;46905;-79
2022/03/13 04:23:26;;;;;;;;;8.67;8.00;;;;;;;;5058042;28;45415;-78
2022/03/13 04:25:52;;;;;;;;;9.33;9.33;;;;;;;;5056099;28;45224;-78
2022/03/13 04:28:17;;;;;;;;;9.67;9.33;;;;;;;;5056246;28;45144;-79
2022/03/13 04:30:44;;;;;;;;;11.33;11.00;;;;;;;;5052112;28;47044;-79
2022/03/13 04:33:09;;;;;;;;;11.00;10.00;;;;;;;;5054701;28;45349;-78
2022/03/13 04:35:34;;;;;;;;;8.33;7.67;;;;;;;;5053901;28;45449;-79
2022/03/13 04:38:00;;;;;;;;;13.33;13.33;;;;;;;;5058882;28;45597;-79
2022/03/13 04:40:26;;;;;;;;;8.67;8.00;;;;;;;;5055527;28;45852;-79
2022/03/13 04:42:51;;;;;;;;;9.33;9.33;;;;;;;;5054300;28;45393;-79
2022/03/13 04:45:18;;;;;;;;;8.00;8.00;;;;;;;;5058991;28;45436;-78
2022/03/13 04:47:43;;;;;;;;;4.00;3.67;;;;;;;;5059382;28;45317;-78
2022/03/13 04:50:09;;;;;;;;;8.33;8.33;;;;;;;;5057801;28;45406;-79
2022/03/13 04:52:34;;;;;;;;;10.33;8.67;;;;;;;;5058152;28;45363;-78
2022/03/13 04:55:00;;;;;;;;;10.00;10.00;;;;;;;;5057948;28;45510;-78
2022/03/13 04:57:25;;;;;;;;;8.00;7.67;;;;;;;;5054013;28;45302;-79
2022/03/13 04:59:50;;;;;;;;;8.00;8.00;;;;;;;;5055599;28;45264;-78
2022/03/13 05:02:15;;;;;;;;;8.00;8.00;;;;;;;;5052895;28;46336;-78
2022/03/13 05:04:43;;;;;;;;;6.33;6.33;;;;;;;;5052122;28;45378;-79
2022/03/13 05:07:09;;;;;;;;;9.00;7.33;;;;;;;;5052932;28;45151;-78
2022/03/13 05:09:35;;;;;;;;;7.00;7.00;;;;;;;;5053008;28;45355;-78
2022/03/13 05:12:10;;;;;;;;;6.00;6.00;;;;;;;;5060265;28;46042;-77
2022/03/13 05:14:35;;;;;;;;;9.00;7.00;;;;;;;;5056110;28;45559;-78
2022/03/13 05:17:00;;;;;;;;;7.00;5.00;;;;;;;;5093295;27;45393;-78
2022/03/13 05:19:25;;;;;;;;;7.00;7.00;;;;;;;;5096786;27;45889;-78
2022/03/13 05:21:51;;;;;;;;;9.00;8.00;;;;;;;;5098304;28;45515;-78
2022/03/13 05:24:16;;;;;;;;;10.00;10.00;;;;;;;;5096817;28;45479;-79
2022/03/13 05:26:42;;;;;;;;;7.00;7.00;;;;;;;;5095250;28;45454;-78
2022/03/13 05:29:07;;;;;;;;;11.00;10.00;;;;;;;;5095223;27;45396;-79
2022/03/13 05:31:32;;;;;;;;;8.67;7.00;;;;;;;;5091354;28;47172;-79
2022/03/13 05:33:58;;;;;;;;;4.00;4.00;;;;;;;;5088786;28;45355;-79
2022/03/13 05:36:23;;;;;;;;;9.00;7.00;;;;;;;;5093360;27;45263;-79
2022/03/13 05:38:48;;;;;;;;;7.00;6.33;;;;;;;;5094967;27;45286;-78
2022/03/13 05:41:14;;;;;;;;;8.33;6.00;;;;;;;;5088795;28;48277;-79
2022/03/13 05:43:42;;;;;;;;;5.00;5.00;;;;;;;;5097824;27;45286;-77
2022/03/13 05:46:08;;;;;;;;;7.00;6.00;;;;;;;;5090018;27;45379;-79
2022/03/13 05:48:33;;;;;;;;;9.33;7.00;;;;;;;;5093671;28;45255;-79
2022/03/13 05:50:58;;;;;;;;;6.00;6.00;;;;;;;;5089159;28;47306;-78
2022/03/13 05:53:24;;;;;;;;;8.00;8.00;;;;;;;;5088142;28;45415;-78
2022/03/13 05:55:49;;;;;;;;;7.00;7.00;;;;;;;;5087662;27;45381;-78
2022/03/13 05:58:14;;;;;;;;;4.33;4.33;;;;;;;;5090299;27;45843;-78
2022/03/13 06:00:40;;;;;;;;;5.67;5.67;;;;;;;;5090061;28;48334;-78
2022/03/13 06:03:06;;;;;;;;;6.33;6.33;;;;;;;;5069933;28;45433;-79
2022/03/13 06:05:33;;;;;;;;;6.00;5.67;;;;;;;;5071785;28;45743;-78
2022/03/13 06:07:58;;;;;;;;;6.33;6.00;;;;;;;;5073106;28;45446;-77
2022/03/13 06:10:24;;;;;;;;;8.00;7.00;;;;;;;;5074037;28;45348;-79
2022/03/13 06:12:49;;;;;;;;;7.00;7.00;;;;;;;;5069417;28;45260;-78
2022/03/13 06:15:17;;;;;;;;;9.00;7.00;;;;;;;;5073922;28;45722;-78
2022/03/13 06:17:43;;;;;;;;;5.00;5.00;;;;;;;;5093016;27;45381;-78
2022/03/13 06:20:10;;;;;;;;;6.67;6.67;;;;;;;;5092568;27;46044;-78
2022/03/13 06:22:36;;;;;;;;;8.33;7.00;;;;;;;;5059317;28;45350;-77
2022/03/13 06:25:01;;;;;;;;;6.33;6.33;;;;;;;;5058600;28;45632;-77
2022/03/13 06:27:27;;;;;;;;;6.00;5.33;;;;;;;;5061082;28;45399;-77
2022/03/13 06:29:52;;;;;;;;;6.33;6.33;;;;;;;;5053868;28;45413;-79
2022/03/13 06:32:18;;;;;;;;;7.00;5.33;;;;;;;;5056086;28;45460;-77
2022/03/13 06:34:44;;;;;;;;;6.67;6.67;;;;;;;;5073490;28;44882;-77
2022/03/13 06:37:10;;;;;;;;;5.00;5.00;;;;;;;;5077455;28;46846;-78
2022/03/13 06:39:35;;;;;;;;;6.67;5.67;;;;;;;;5075419;28;44942;-79
2022/03/13 06:42:00;;;;;;;;;6.00;6.00;;;;;;;;5065009;28;45504;-78
2022/03/13 06:44:26;;;;;;;;;6.00;5.67;;;;;;;;5073891;28;45435;-77
2022/03/13 06:46:51;;;;;;;;;8.00;8.00;;;;;;;;5071239;28;45239;-77
2022/03/13 06:49:16;;;;;;;;;5.33;5.33;;;;;;;;5075661;28;46291;-79
2022/03/13 06:51:41;;;;;;;;;8.00;8.00;;;;;;;;5076207;28;45310;-78
2022/03/13 06:54:11;;;;;;;;;6.33;6.00;;;;;;;;5073201;28;45243;-77
2022/03/13 06:56:36;;;;;;;;;7.33;6.00;;;;;;;;5077453;28;45331;-76
2022/03/13 06:59:03;;;;;;;;;8.00;7.00;;;;;;;;5077507;28;45841;-77
2022/03/13 07:01:37;;;;;;;;;6.00;6.00;;;;;;;;5073195;28;45326;-80
2022/03/13 07:04:03;;;;;;;;;5.00;5.00;;;;;;;;5068397;28;45710;-78
2022/03/13 07:06:28;;;;;;;;;7.00;5.00;;;;;;;;5069921;28;46090;-78
2022/03/13 07:08:55;;;;;;;;;5.00;5.00;;;;;;;;5043491;28;48073;-76
2022/03/13 07:11:21;;;;;;;;;5.00;5.00;;;;;;;;5044442;28;45415;-76
2022/03/13 07:13:47;;;;;;;;;7.33;7.33;;;;;;;;5045037;28;45370;-79
2022/03/13 07:16:15;;;;;;;;;4.00;4.00;;;;;;;;5056836;28;47251;-77
2022/03/13 07:18:42;;;;;;;;;5.00;4.00;;;;;;;;5037708;28;47260;-76
2022/03/13 07:21:07;;;;;;;;;5.00;5.00;;;;;;;;5044037;28;45379;-78
2022/03/13 07:23:33;;;;;;;;;9.00;8.67;;;;;;;;5059245;28;45408;-76
2022/03/13 07:25:58;;;;;;;;;4.00;4.00;;;;;;;;5060566;28;45504;-76
2022/03/13 07:28:23;;;;;;;;;4.67;4.67;;;;;;;;5055739;28;46186;-76
2022/03/13 07:30:48;;;;;;;;;4.33;4.33;;;;;;;;5066503;28;44764;-75
2022/03/13 07:33:13;;;;;;;;;8.00;8.00;;;;;;;;5056507;28;45367;-77
2022/03/13 07:35:39;;;;;;;;;4.00;4.00;;;;;;;;5070479;28;45067;-75
2022/03/13 07:38:04;;;;;;;;;5.00;5.00;;;;;;;;5070980;28;48567;-76
2022/03/13 07:40:30;;;;;;;;;6.00;5.33;;;;;;;;5068533;28;45298;-76
2022/03/13 07:42:56;;;;;;;;;6.67;5.00;;;;;;;;5072888;28;45338;-76
2022/03/13 07:45:21;;;;;;;;;5.00;5.00;;;;;;;;5065333;28;46085;-75
2022/03/13 07:47:47;;;;;;;;;5.67;5.00;;;;;;;;5064460;28;47004;-78
2022/03/13 07:50:12;;;;;;;;;4.33;3.00;;;;;;;;5059221;28;45268;-78
2022/03/13 07:52:37;;;;;;;;;5.00;5.00;;;;;;;;5058026;28;45302;-78
2022/03/13 07:55:03;;;;;;;;;5.00;5.00;;;;;;;;5059172;28;45290;-78
2022/03/13 07:57:30;;;;;;;;;5.00;5.00;;;;;;;;5059240;28;46273;-78
2022/03/13 07:59:56;;;;;;;;;7.00;4.00;;;;;;;;5059243;28;45340;-78
2022/03/13 08:02:21;;;;;;;;;5.33;5.00;;;;;;;;5059299;28;45694;-79
2022/03/13 08:04:46;;;;;;;;;5.00;5.00;;;;;;;;5058867;28;45472;-78
2022/03/13 08:07:11;;;;;;;;;6.33;6.33;;;;;;;;5059069;28;46306;-78
2022/03/13 08:09:38;;;;;;;;;4.33;4.33;;;;;;;;5059361;28;45274;-79
2022/03/13 08:12:04;;;;;;;;;5.33;4.67;;;;;;;;5060021;28;45366;-78
2022/03/13 08:14:29;;;;;;;;;3.67;3.00;;;;;;;;5058898;28;45543;-78
2022/03/13 08:16:54;;;;;;;;;4.67;4.67;;;;;;;;5078713;28;46366;-78
2022/03/13 08:19:20;;;;;;;;;5.00;5.00;;;;;;;;5079281;28;45317;-79
2022/03/13 08:21:45;;;;;;;;;5.00;4.67;;;;;;;;5080433;28;45290;-79
2022/03/13 08:24:13;;;;;;;;;5.00;3.33;;;;;;;;5077814;28;46067;-79
2022/03/13 08:26:39;;;;;;;;;3.00;2.33;;;;;;;;5081257;27;45609;-78
2022/03/13 08:29:08;;;;;;;;;3.67;3.67;;;;;;;;5080566;28;45306;-78
2022/03/13 08:31:34;;;;;;;;;4.00;4.00;;;;;;;;5079267;27;45293;-78
2022/03/13 08:33:59;;;;;;;;;4.67;3.33;;;;;;;;5078776;28;45349;-78
2022/03/13 08:36:25;;;;;;;;;5.33;5.33;;;;;;;;5078538;27;45975;-78
2022/03/13 08:38:50;;;;;;;;;3.00;3.00;;;;;;;;5079168;27;45392;-78
2022/03/13 08:41:15;;;;;;;;;3.67;3.00;;;;;;;;5064704;27;45483;-78
2022/03/13 08:43:40;;;;;;;;;4.67;3.33;;;;;;;;5059680;28;45938;-80
2022/03/13 08:46:06;;;;;;;;;3.00;3.00;;;;;;;;5064544;28;48426;-80
2022/03/13 08:48:31;;;;;;;;;3.00;3.00;;;;;;;;5065240;28;45467;-79
2022/03/13 08:50:56;;;;;;;;;4.33;4.33;;;;;;;;5066800;28;45310;-80
2022/03/13 08:53:22;;;;;;;;;3.00;3.00;;;;;;;;5077296;28;45332;-81
2022/03/13 08:55:47;;;;;;;;;3.33;3.33;;;;;;;;5070789;28;45441;-81
2022/03/13 08:58:12;;;;;;;;;3.00;3.00;;;;;;;;5062198;28;45275;-83
2022/03/13 09:00:37;;;;;;;;;4.33;4.33;;;;;;;;5063228;28;45603;-82
2022/03/13 09:03:03;;;;;;;;;5.00;5.00;;;;;;;;5065506;28;45281;-81
2022/03/13 09:05:28;;;;;;;;;6.00;3.00;;;;;;;;5068945;28;45198;-79
2022/03/13 09:07:53;;;;;;;;;2.00;2.00;;;;;;;;5060947;28;45428;-80
2022/03/13 09:10:19;;;;;;;;;3.00;3.00;;;;;;;;5062751;28;45219;-80
2022/03/13 09:12:44;;;;;;;;;2.67;2.67;;;;;;;;5062308;28;45394;-82
2022/03/13 09:15:10;;;;;;;;;3.00;3.00;;;;;;;;5067381;28;45349;-81
2022/03/13 09:17:36;;;;;;;;;2.00;2.00;;;;;;;;5087042;27;45321;-81
2022/03/13 09:20:03;;;;;;;;;2.00;2.00;;;;;;;;5084963;27;45548;-81
2022/03/13 09:22:29;;;;;;;;;3.33;3.33;;;;;;;;5084117;27;45315;-81
2022/03/13 09:24:57;;;;;;;;;1.67;1.67;;;;;;;;5082186;27;46157;-80
2022/03/13 09:27:23;;;;;;;;;2.00;2.00;;;;;;;;5057062;28;45508;-80
2022/03/13 09:29:49;;;;;;;;;2.67;2.67;;;;;;;;5060467;28;45371;-80
2022/03/13 09:32:14;;;;;;;;;2.00;2.00;;;;;;;;5061823;28;45523;-80
2022/03/13 09:34:39;;;;;;;;;1.33;1.33;;;;;;;;5063342;28;45334;-80
2022/03/13 09:37:04;;;;;;;;;1.33;1.33;;;;;;;;5062801;28;45442;-81
2022/03/13 09:39:30;;;;;;;;;2.00;1.33;;;;;;;;5062207;28;45255;-81
2022/03/13 09:41:56;;;;;;;;;1.67;1.67;;;;;;;;5060381;28;46920;-81
2022/03/13 09:44:21;;;;;;;;;1.00;1.00;;;;;;;;5061071;28;46176;-79
2022/03/13 09:46:47;;;;;;;;;1.00;1.00;;;;;;;;5059578;28;45380;-80
2022/03/13 09:49:14;;;;;;;;;1.00;1.00;;;;;;;;5060027;28;45358;-80
2022/03/13 09:51:39;;;;;;;;;2.00;2.00;;;;;;;;5060969;28;45327;-79
2022/03/13 09:54:05;;;;;;;;;0.00;0.00;;;;;;;;5060960;28;45464;-80
2022/03/13 09:56:34;;;;;;;;;0.67;0.67;;;;;;;;5060743;28;45330;-79
2022/03/13 09:58:59;;;;;;;;;1.00;1.00;;;;;;;;5061099;28;45389;-79
2022/03/13 10:01:24;;;;;;;;;1.00;1.00;;;;;;;;5060898;28;45489;-79
2022/03/13 10:03:50;;;;;;;;;1.00;1.00;;;;;;;;5050270;28;45429;-76
2022/03/13 10:06:15;;;;;;;;;1.00;1.00;;;;;;;;5052606;28;45361;-77
2022/03/13 10:08:40;;;;;;;;;1.33;1.33;;;;;;;;5049817;28;45321;-77
2022/03/13 10:11:07;;;;;;;;;0.33;0.33;;;;;;;;5056731;28;46019;-78
2022/03/13 10:13:37;;;;;;;;;1.33;1.00;;;;;;;;5051652;28;45355;-77
2022/03/13 10:16:03;;;;;;;;;1.00;1.00;;;;;;;;5051396;28;45406;-78
2022/03/13 10:18:28;;;;;;;;;2.00;2.00;;;;;;;;5055668;28;45503;-76
2022/03/13 10:20:53;;;;;;;;;2.00;2.00;;;;;;;;5059269;28;46215;-78
2022/03/13 10:23:20;;;;;;;;;2.67;2.67;;;;;;;;5058004;28;47104;-77
2022/03/13 10:25:47;;;;;;;;;1.00;1.00;;;;;;;;5049255;28;45476;-78
2022/03/13 10:28:12;;;;;;;;;2.00;2.00;;;;;;;;5045222;28;45452;-77
2022/03/13 10:30:38;;;;;;;;;2.00;2.00;;;;;;;;5049532;28;47011;-77
2022/03/13 10:33:05;;;;;;;;;2.00;2.00;;;;;;;;5040737;28;45954;-77
2022/03/13 10:35:31;;;;;;;;;1.00;1.00;;;;;;;;5039565;28;45348;-78
2022/03/13 10:37:56;;;;;;;;;2.00;2.00;;;;;;;;5044367;28;45311;-77
2022/03/13 10:40:22;;;;;;;;;1.00;1.00;;;;;;;;5041394;28;46361;-77
2022/03/13 10:42:49;;;;;;;;;2.33;2.33;;;;;;;;5048668;28;47212;-77
2022/03/13 10:45:34;;;;;;;;;2.00;2.00;;;;;;;;5041416;28;45755;-77
2022/03/13 10:48:18;;;;;;;;;2.00;2.00;;;;;;;;5047269;28;45463;-76
2022/03/13 10:50:44;;;;;;;;;3.00;3.00;;;;;;;;5057760;28;45512;-77
2022/03/13 10:53:15;;;;;;;;;3.33;3.00;;;;;;;;5049868;28;45415;-77
2022/03/13 10:55:43;;;;;;;;;1.00;1.00;;;;;;;;5054936;28;45359;-77
2022/03/13 10:58:09;;;;;;;;;2.33;2.33;;;;;;;;5052686;28;45375;-77
2022/03/13 11:00:35;;;;;;;;;3.00;2.67;;;;;;;;5043991;28;45269;-78
2022/03/13 11:03:11;;;;;;;;;2.00;2.00;;;;;;;;5056240;28;46368;-78
2022/03/13 11:05:37;;;;;;;;;4.67;3.00;;;;;;;;5049276;28;45481;-77
2022/03/13 11:08:03;;;;;;;;;3.00;3.00;;;;;;;;5042079;28;45361;-77
2022/03/13 11:10:29;;;;;;;;;2.00;2.00;;;;;;;;5048242;28;46052;-78
2022/03/13 11:12:57;;;;;;;;;3.00;3.00;;;;;;;;5051853;28;46059;-77
2022/03/13 11:15:23;;;;;;;;;3.67;3.00;;;;;;;;5060400;28;45363;-76
2022/03/13 11:17:48;;;;;;;;;2.67;2.67;;;;;;;;5060941;28;45275;-78
2022/03/13 11:20:14;;;;;;;;;4.67;3.67;;;;;;;;5060427;28;45264;-77
2022/03/13 11:22:39;;;;;;;;;2.00;2.00;;;;;;;;5060352;28;45960;-78
2022/03/13 11:25:05;;;;;;;;;3.67;3.67;;;;;;;;5059977;28;45329;-78
2022/03/13 11:27:33;;;;;;;;;5.00;5.00;;;;;;;;5060112;28;45392;-77
2022/03/13 11:29:58;;;;;;;;;4.33;3.00;;;;;;;;5059754;28;45465;-77
2022/03/13 11:32:29;;;;;;;;;3.00;3.00;;;;;;;;5059764;28;45314;-78
2022/03/13 11:35:13;;;;;;;;;0.00;0.00;;;;;;;;5059340;28;45382;-78
2022/03/13 11:37:42;;;;;;;;;4.33;4.33;;;;;;;;5059742;28;45268;-77
2022/03/13 11:40:08;;;;;;;;;4.67;4.67;;;;;;;;5059947;28;45343;-77
2022/03/13 11:42:49;;;;;;;;;3.33;3.33;;;;;;;;5059271;28;45436;-77
2022/03/13 11:45:30;;;;;;;;;4.33;4.33;;;;;;;;5058067;28;45355;-77
2022/03/13 11:47:55;;;;;;;;;4.00;4.00;;;;;;;;5059448;28;45314;-78
2022/03/13 11:50:41;;;;;;;;;4.00;4.00;;;;;;;;5059117;28;45417;-77
2022/03/13 11:53:19;;;;;;;;;8.33;8.33;;;;;;;;5057581;28;45524;-76
2022/03/13 11:56:00;;;;;;;;;5.00;4.00;;;;;;;;5059167;28;45325;-75
2022/03/13 11:58:45;;;;;;;;;6.33;6.33;;;;;;;;5059500;28;45338;-75
2022/03/13 12:01:12;;;;;;;;;5.67;5.67;;;;;;;;5058925;28;45326;-76
2022/03/13 12:03:37;;;;;;;;;6.00;6.00;;;;;;;;5059085;28;45300;-76
2022/03/13 12:06:04;;;;;;;;;7.67;7.67;;;;;;;;5057577;28;45309;-76
2022/03/13 12:08:49;;;;;;;;;7.00;6.33;;;;;;;;5059021;28;45346;-77
2022/03/13 12:11:38;;;;;;;;;5.00;5.00;;;;;;;;5017604;28;45562;-77
2022/03/13 12:14:03;;;;;;;;;9.00;7.00;;;;;;;;5057816;28;47555;-78
2022/03/13 12:16:28;;;;;;;;;7.67;7.67;;;;;;;;5041228;28;45681;-76
2022/03/13 12:18:58;;;;;;;;;9.33;7.67;;;;;;;;5039064;28;45359;-77
2022/03/13 12:21:23;;;;;;;;;7.67;7.67;;;;;;;;5038451;28;45325;-78
2022/03/13 12:23:48;;;;;;;;;6.67;6.67;;;;;;;;5038641;28;45513;-77
2022/03/13 12:26:16;;;;;;;;;7.00;7.00;;;;;;;;5040482;28;45342;-76
2022/03/13 12:28:41;;;;;;;;;8.33;8.33;;;;;;;;5040242;28;45585;-77
2022/03/13 12:31:07;;;;;;;;;6.00;6.00;;;;;;;;5040638;28;47292;-78
2022/03/13 12:33:33;;;;;;;;;6.00;6.00;;;;;;;;5042647;28;45504;-78
2022/03/13 12:36:01;;;;;;;;;7.33;7.33;;;;;;;;5041303;28;45409;-77
2022/03/13 12:38:28;;;;;;;;;8.33;7.00;;;;;;;;5043000;28;45402;-79
2022/03/13 12:40:54;;;;;;;;;7.67;7.33;;;;;;;;5042085;28;45323;-78
2022/03/13 12:43:20;;;;;;;;;8.67;8.33;;;;;;;;5041826;28;46227;-78
2022/03/13 12:45:51;;;;;;;;;5.67;5.67;;;;;;;;5042043;28;45330;-77
2022/03/13 12:48:17;;;;;;;;;11.33;10.33;;;;;;;;5042238;28;45871;-78
2022/03/13 12:50:47;;;;;;;;;7.00;7.00;;;;;;;;5040208;28;47689;-78
2022/03/13 12:53:17;;;;;;;;;8.67;8.67;;;;;;;;5039981;28;47274;-78
2022/03/13 12:55:49;;;;;;;;;6.33;6.33;;;;;;;;5040763;28;45313;-78
2022/03/13 12:58:15;;;;;;;;;7.33;7.33;;;;;;;;5049110;28;45432;-76
2022/03/13 13:00:41;;;;;;;;;7.67;7.33;;;;;;;;5046223;28;45287;-77
2022/03/13 13:03:07;;;;;;;;;5.33;4.67;;;;;;;;5044984;28;45433;-78
2022/03/13 13:05:33;;;;;;;;;6.00;6.00;;;;;;;;5050119;28;45334;-79
2022/03/13 13:07:58;;;;;;;;;5.67;5.33;;;;;;;;5054262;28;45537;-79
2022/03/13 13:10:23;;;;;;;;;7.67;7.67;;;;;;;;5056035;28;45490;-79
2022/03/13 13:12:49;;;;;;;;;5.00;5.00;;;;;;;;5052434;28;47281;-78
2022/03/13 13:15:15;;;;;;;;;7.00;7.00;;;;;;;;5049874;28;45808;-77
2022/03/13 13:17:41;;;;;;;;;5.00;5.00;;;;;;;;5056015;28;45465;-77
2022/03/13 13:20:17;;;;;;;;;7.33;7.33;;;;;;;;5052734;28;45775;-79
2022/03/13 13:22:44;;;;;;;;;8.00;7.33;;;;;;;;5055876;28;45997;-78
2022/03/13 13:25:10;;;;;;;;;7.67;7.67;;;;;;;;5055566;28;45413;-79
2022/03/13 13:27:36;;;;;;;;;7.00;7.00;;;;;;;;5050100;28;45370;-80
2022/03/13 13:30:21;;;;;;;;;5.67;5.67;;;;;;;;5054936;28;45411;-79
2022/03/13 13:32:47;;;;;;;;;6.33;6.33;;;;;;;;5059192;28;48243;-79
2022/03/13 13:35:15;;;;;;;;;7.33;7.33;;;;;;;;5056046;28;45275;-79
2022/03/13 13:37:55;;;;;;;;;5.33;5.33;;;;;;;;5051338;28;45476;-79
2022/03/13 13:40:20;;;;;;;;;5.00;5.00;;;;;;;;5045707;28;45253;-79
2022/03/13 13:42:52;;;;;;;;;5.67;5.67;;;;;;;;5049700;28;45367;-80
2022/03/13 13:45:20;;;;;;;;;6.33;6.00;;;;;;;;5055512;28;45453;-80
2022/03/13 13:47:46;;;;;;;;;6.00;6.00;;;;;;;;5058098;28;45445;-79
2022/03/13 13:50:15;;;;;;;;;5.67;5.67;;;;;;;;5052308;28;45635;-80
2022/03/13 13:52:42;;;;;;;;;5.33;5.33;;;;;;;;5050614;28;47288;-79
2022/03/13 13:55:23;;;;;;;;;6.00;6.00;;;;;;;;5050993;28;45386;-79
2022/03/13 13:58:08;;;;;;;;;8.33;6.33;;;;;;;;5050333;28;45341;-78
2022/03/13 14:00:33;;;;;;;;;8.33;6.33;;;;;;;;5049893;28;47124;-78
2022/03/13 14:02:59;;;;;;;;;10.00;9.33;;;;;;;;5057165;28;48968;-79
2022/03/13 14:05:24;;;;;;;;;6.33;5.67;;;;;;;;5053530;28;45477;-80
2022/03/13 14:07:50;;;;;;;;;7.00;7.00;;;;;;;;5058133;28;45412;-79
2022/03/13 14:10:15;;;;;;;;;7.33;6.67;;;;;;;;5056818;28;45454;-78
2022/03/13 14:12:42;;;;;;;;;7.00;7.00;;;;;;;;5049534;28;45367;-79
2022/03/13 14:15:08;;;;;;;;;5.67;5.67;;;;;;;;5068701;28;45796;-80
2022/03/13 14:17:33;;;;;;;;;5.67;5.00;;;;;;;;5041004;28;45450;-79
2022/03/13 14:19:58;;;;;;;;;6.67;6.33;;;;;;;;5040442;28;45438;-76
2022/03/13 14:22:23;;;;;;;;;6.00;5.33;;;;;;;;5040822;28;46068;-78
2022/03/13 14:24:49;;;;;;;;;4.33;3.67;;;;;;;;5041238;28;45495;-77
2022/03/13 14:27:14;;;;;;;;;4.33;4.33;;;;;;;;5051054;28;45300;-77
2022/03/13 14:29:39;;;;;;;;;4.33;4.33;;;;;;;;5040892;28;45338;-77
2022/03/13 14:32:05;;;;;;;;;5.00;5.00;;;;;;;;5041388;28;45476;-77
2022/03/13 14:34:31;;;;;;;;;4.00;4.00;;;;;;;;5056268;28;46125;-79